Аэропорт: Брест-2. Брест

ICAO: UMBB

METAR:
2018/11/21 13:30
UMBB 211330Z 09006G09MPS 7000 OVC022 01/M06 Q1026 R11/CLRD// NOSIG
METAR:
2018/08/29 12:21
TAF UMBB 291405Z 2912/2924 34005MPS 6000 BKN015 
      TEMPO 2915/2918 3000 -SHRA SCT020CB 
      TEMPO 2918/2924 2000 BR BKN005